createdAt,value
2018-09-05T00:01:21.923Z,24.63
2018-09-05T00:03:50.490Z,20.37
2018-09-05T00:06:18.687Z,23.83
2018-09-05T00:08:46.888Z,21.80
2018-09-05T00:11:15.091Z,21.77
2018-09-05T00:13:43.322Z,20.93
2018-09-05T00:16:11.511Z,19.93
2018-09-05T00:18:39.679Z,20.33
2018-09-05T00:21:07.871Z,20.83
2018-09-05T00:23:36.108Z,21.00
2018-09-05T00:26:04.789Z,20.20
2018-09-05T00:28:33.043Z,21.43
2018-09-05T00:31:01.266Z,20.63
2018-09-05T00:33:29.515Z,22.97
2018-09-05T00:35:57.711Z,25.80
2018-09-05T00:38:26.267Z,20.97
2018-09-05T00:40:54.527Z,22.30
2018-09-05T00:43:22.795Z,22.20
2018-09-05T00:45:50.968Z,23.57
2018-09-05T00:48:19.207Z,21.70
2018-09-05T00:50:47.463Z,23.10
2018-09-05T00:53:15.711Z,22.17
2018-09-05T00:55:43.971Z,21.80
2018-09-05T00:58:12.167Z,20.37
2018-09-05T01:00:40.382Z,19.57
2018-09-05T01:03:08.615Z,20.17
2018-09-05T01:05:36.855Z,21.63
2018-09-05T01:08:05.511Z,21.37
2018-09-05T01:10:33.732Z,22.10
2018-09-05T01:13:01.925Z,19.87
2018-09-05T01:15:30.133Z,21.80
2018-09-05T01:17:58.395Z,18.90
2018-09-05T01:20:26.587Z,19.83
2018-09-05T01:22:54.806Z,19.40
2018-09-05T01:25:23.046Z,18.43
2018-09-05T01:27:51.515Z,18.73
2018-09-05T01:30:19.881Z,21.30
2018-09-05T01:32:48.079Z,18.87
2018-09-05T01:35:16.263Z,19.20
2018-09-05T01:37:44.518Z,20.97
2018-09-05T01:40:12.756Z,20.50
2018-09-05T01:42:41.021Z,19.17
2018-09-05T01:45:09.227Z,20.37
2018-09-05T01:47:37.412Z,21.90
2018-09-05T01:50:05.604Z,20.50
2018-09-05T01:52:33.794Z,21.70
2018-09-05T01:55:01.999Z,20.53
2018-09-05T01:57:30.203Z,21.17
2018-09-05T01:59:58.523Z,19.53
2018-09-05T02:02:26.715Z,19.40
2018-09-05T02:04:55.600Z,19.60
2018-09-05T02:07:23.838Z,20.60
2018-09-05T02:09:52.015Z,19.23
2018-09-05T02:12:20.493Z,18.50
2018-09-05T02:14:48.704Z,19.20
2018-09-05T02:17:16.906Z,19.30
2018-09-05T02:19:45.143Z,17.87
2018-09-05T02:22:13.511Z,17.67
2018-09-05T02:24:42.015Z,18.80
2018-09-05T02:27:10.188Z,17.27
2018-09-05T02:29:38.425Z,17.43
2018-09-05T02:32:06.670Z,20.77
2018-09-05T02:34:34.886Z,18.80
2018-09-05T02:37:03.074Z,19.90
2018-09-05T02:39:31.310Z,21.27
2018-09-05T02:41:59.524Z,18.63
2018-09-05T02:44:27.731Z,17.60
2018-09-05T02:46:55.920Z,21.50
2018-09-05T02:49:24.174Z,19.00
2018-09-05T02:51:52.390Z,18.67
2018-09-05T02:54:20.574Z,18.23
2018-09-05T02:56:48.884Z,18.60
2018-09-05T02:59:17.088Z,19.40
2018-09-05T03:01:45.291Z,18.17
2018-09-05T03:04:13.480Z,20.20
2018-09-05T03:06:41.682Z,17.47
2018-09-05T03:09:09.892Z,17.83
2018-09-05T03:11:38.215Z,19.20
2018-09-05T03:14:06.431Z,16.93
2018-09-05T03:16:34.667Z,16.73
2018-09-05T03:19:04.108Z,19.13
2018-09-05T03:21:31.058Z,17.90
2018-09-05T03:23:59.258Z,18.97
2018-09-05T03:26:27.534Z,18.13
2018-09-05T03:28:55.767Z,17.37
2018-09-05T03:31:23.999Z,17.33
2018-09-05T03:33:52.287Z,17.00
2018-09-05T03:36:20.559Z,15.50
2018-09-05T03:38:48.755Z,15.90
2018-09-05T03:41:16.958Z,14.67
2018-09-05T03:43:45.143Z,17.93
2018-09-05T03:46:13.386Z,15.90
2018-09-05T03:48:41.592Z,15.63
2018-09-05T03:51:09.819Z,15.37
2018-09-05T03:53:38.055Z,16.73
2018-09-05T03:56:06.260Z,15.03
2018-09-05T03:58:34.523Z,14.17
2018-09-05T04:01:02.731Z,14.60
2018-09-05T04:03:30.981Z,15.07
2018-09-05T04:05:59.162Z,15.17
2018-09-05T04:08:27.433Z,14.77
2018-09-05T04:10:55.651Z,15.50
2018-09-05T04:13:23.936Z,15.07
2018-09-05T04:15:52.140Z,19.10
2018-09-05T04:18:20.314Z,15.63
2018-09-05T04:20:48.522Z,16.10
2018-09-05T04:23:16.782Z,17.23
2018-09-05T04:25:44.995Z,17.57
2018-09-05T04:28:13.233Z,16.50
2018-09-05T04:30:41.482Z,17.77
2018-09-05T04:33:09.719Z,15.40
2018-09-05T04:35:38.043Z,17.00
2018-09-05T04:38:06.247Z,17.07
2018-09-05T04:40:34.617Z,17.57
2018-09-05T04:43:02.786Z,20.57
2018-09-05T04:45:31.031Z,18.53
2018-09-05T04:47:59.266Z,17.43
2018-09-05T04:50:27.478Z,18.30
2018-09-05T04:52:55.668Z,18.07
2018-09-05T04:55:23.859Z,18.73
2018-09-05T04:57:52.092Z,18.40
2018-09-05T05:00:20.291Z,18.37
2018-09-05T05:02:48.499Z,19.13
2018-09-05T05:05:16.666Z,20.67
2018-09-05T05:07:44.951Z,20.60
2018-09-05T05:10:13.163Z,19.47
2018-09-05T05:12:41.443Z,18.67
2018-09-05T05:15:09.615Z,20.97
2018-09-05T05:17:37.824Z,18.97
2018-09-05T05:20:06.030Z,18.63
2018-09-05T05:22:34.244Z,21.33
2018-09-05T05:25:02.567Z,20.53
2018-09-05T05:27:30.831Z,21.67
2018-09-05T05:29:59.104Z,22.03
2018-09-05T05:32:27.356Z,20.00
2018-09-05T05:34:55.737Z,19.80
2018-09-05T05:37:24.105Z,19.83
2018-09-05T05:39:52.302Z,23.77
2018-09-05T05:42:20.603Z,21.70
2018-09-05T05:44:48.784Z,20.60
2018-09-05T05:47:16.979Z,20.40
2018-09-05T05:49:45.247Z,20.27
2018-09-05T05:52:13.439Z,21.33
2018-09-05T05:54:41.616Z,20.67
2018-09-05T05:57:09.815Z,22.80
2018-09-05T05:59:38.176Z,19.77
2018-09-05T06:02:06.527Z,22.53
2018-09-05T06:04:34.980Z,20.57
2018-09-05T06:07:03.198Z,23.33
2018-09-05T06:09:31.418Z,22.50
2018-09-05T06:11:59.773Z,20.17
2018-09-05T06:14:28.027Z,20.93
2018-09-05T06:16:56.274Z,21.47
2018-09-05T06:19:24.458Z,21.03
2018-09-05T06:21:52.734Z,22.63
2018-09-05T06:24:20.947Z,21.97
2018-09-05T06:26:49.163Z,23.73
2018-09-05T06:29:18.079Z,23.87
2018-09-05T06:31:46.286Z,23.60
2018-09-05T06:34:14.522Z,22.77
2018-09-05T06:36:42.658Z,23.20
2018-09-05T06:39:11.306Z,21.17
2018-09-05T06:41:39.488Z,22.10
2018-09-05T06:44:08.150Z,24.33
2018-09-05T06:46:36.404Z,21.80
2018-09-05T06:49:04.623Z,23.50
2018-09-05T06:51:32.923Z,27.10
2018-09-05T06:54:01.152Z,23.73
2018-09-05T06:56:29.374Z,21.83
2018-09-05T06:58:57.546Z,19.47
2018-09-05T07:01:25.752Z,17.70
2018-09-05T07:03:54.021Z,18.97
2018-09-05T07:06:22.235Z,17.60
2018-09-05T07:08:50.431Z,16.17
2018-09-05T07:11:18.607Z,18.50
2018-09-05T07:13:46.851Z,18.63
2018-09-05T07:16:15.079Z,17.03
2018-09-05T07:18:43.316Z,17.60
2018-09-05T07:21:11.557Z,18.00
2018-09-05T07:23:39.710Z,17.90
2018-09-05T07:26:07.929Z,18.33
2018-09-05T07:28:36.157Z,18.07
2018-09-05T07:31:04.563Z,17.87
2018-09-05T07:33:32.743Z,18.37
2018-09-05T07:36:00.933Z,19.10
2018-09-05T07:38:29.139Z,20.20
2018-09-05T07:40:57.355Z,19.33
2018-09-05T07:43:25.671Z,20.43
2018-09-05T07:45:53.884Z,20.57
2018-09-05T07:48:22.132Z,20.63
2018-09-05T07:50:50.361Z,23.30
2018-09-05T07:53:18.534Z,28.87
2018-09-05T07:55:46.738Z,25.40
2018-09-05T07:58:14.906Z,24.33
2018-09-05T08:00:43.091Z,27.17
2018-09-05T08:03:11.263Z,29.37
2018-09-05T08:05:39.548Z,31.97
2018-09-05T08:08:07.791Z,26.37
2018-09-05T08:10:36.059Z,28.27
2018-09-05T08:13:04.272Z,30.33
2018-09-05T08:15:32.497Z,29.73
2018-09-05T08:18:00.717Z,31.33
2018-09-05T08:20:29.031Z,30.00
2018-09-05T08:22:57.278Z,31.73
2018-09-05T08:25:25.490Z,33.00
2018-09-05T08:27:53.727Z,37.30
2018-09-05T08:30:21.923Z,33.73
2018-09-05T08:32:50.135Z,29.90
2018-09-05T08:35:18.606Z,31.27
2018-09-05T08:37:46.618Z,31.07
2018-09-05T08:40:14.800Z,32.47
2018-09-05T08:42:43.035Z,36.70
2018-09-05T08:45:11.343Z,33.30
2018-09-05T08:47:39.510Z,34.70
2018-09-05T08:50:07.641Z,36.33
2018-09-05T08:52:35.839Z,37.00
2018-09-05T08:55:04.543Z,31.87
2018-09-05T08:57:32.627Z,33.30
2018-09-05T09:00:00.836Z,37.03
2018-09-05T09:02:29.107Z,39.37
2018-09-05T09:04:57.309Z,37.37
2018-09-05T09:07:25.501Z,35.90
2018-09-05T09:09:53.716Z,33.60
2018-09-05T09:12:21.976Z,33.97
2018-09-05T09:14:50.191Z,31.10
2018-09-05T09:17:18.390Z,30.63
2018-09-05T09:19:46.632Z,32.40
2018-09-05T09:22:14.862Z,35.63
2018-09-05T09:24:43.083Z,35.87
2018-09-05T09:27:11.303Z,29.87
2018-09-05T09:29:39.496Z,28.57
2018-09-05T09:32:07.763Z,28.83
2018-09-05T09:34:36.007Z,27.47
2018-09-05T09:37:04.256Z,26.07
2018-09-05T09:39:32.474Z,27.83
2018-09-05T09:42:00.664Z,28.60
2018-09-05T09:44:28.900Z,26.57
2018-09-05T09:46:57.391Z,25.70
2018-09-05T09:49:25.598Z,22.10
2018-09-05T09:51:57.983Z,28.37
2018-09-05T09:54:26.187Z,20.30
2018-09-05T09:56:54.414Z,19.80
2018-09-05T09:59:22.655Z,21.50
2018-09-05T10:01:56.152Z,25.00
2018-09-05T10:04:29.764Z,24.03
2018-09-05T10:08:02.927Z,24.83
2018-09-05T10:10:36.601Z,24.00
2018-09-05T10:13:10.082Z,26.17
2018-09-05T10:15:43.768Z,26.63
2018-09-05T10:18:17.282Z,27.37
2018-09-05T10:20:45.498Z,24.97
2018-09-05T10:23:13.892Z,27.30
2018-09-05T10:25:42.138Z,23.73
2018-09-05T10:28:10.367Z,25.40
2018-09-05T10:30:38.602Z,25.93
2018-09-05T10:33:06.837Z,24.93
2018-09-05T10:35:35.037Z,23.10
2018-09-05T10:38:03.295Z,21.40
2018-09-05T10:40:31.505Z,26.00
2018-09-05T10:42:59.702Z,26.27
2018-09-05T10:45:27.928Z,25.80
2018-09-05T10:47:56.420Z,29.77
2018-09-05T10:50:24.639Z,27.33
2018-09-05T10:52:52.895Z,25.43
2018-09-05T10:55:21.081Z,27.77
2018-09-05T10:57:49.343Z,27.93
2018-09-05T11:00:17.572Z,27.07
2018-09-05T11:02:45.743Z,26.77
2018-09-05T11:05:13.946Z,25.80
2018-09-05T11:07:42.178Z,24.03
2018-09-05T11:10:10.427Z,21.60
2018-09-05T11:12:38.622Z,23.67
2018-09-05T11:15:06.949Z,24.37
2018-09-05T11:17:35.263Z,26.40
2018-09-05T11:20:03.537Z,31.73
2018-09-05T11:22:31.808Z,31.27
2018-09-05T11:25:06.231Z,26.97
2018-09-05T11:27:34.462Z,27.97
2018-09-05T11:30:02.605Z,33.43
2018-09-05T11:32:30.811Z,28.67
2018-09-05T11:34:59.120Z,30.00
2018-09-05T11:37:27.563Z,29.40
2018-09-05T11:39:55.774Z,25.70
2018-09-05T11:42:24.006Z,23.53
2018-09-05T11:44:52.330Z,21.00
2018-09-05T11:47:20.516Z,20.43
2018-09-05T11:49:48.899Z,23.50
2018-09-05T11:52:17.211Z,19.83
2018-09-05T11:54:45.553Z,24.07
2018-09-05T11:57:13.858Z,24.00
2018-09-05T11:59:42.132Z,26.13
2018-09-05T12:02:10.936Z,23.40
2018-09-05T12:04:39.296Z,23.83
2018-09-05T12:07:08.029Z,21.17
2018-09-05T12:09:36.236Z,24.13
2018-09-05T12:12:04.482Z,21.03
2018-09-05T12:14:32.683Z,22.93
2018-09-05T12:17:01.233Z,20.27
2018-09-05T12:19:29.419Z,22.60
2018-09-05T12:21:57.579Z,19.67
2018-09-05T12:24:25.773Z,20.07
2018-09-05T12:26:53.983Z,18.23
2018-09-05T12:29:22.252Z,24.30
2018-09-05T12:31:50.422Z,18.70
2018-09-05T12:34:18.611Z,20.93
2018-09-05T12:36:46.897Z,18.27
2018-09-05T12:39:15.298Z,19.70
2018-09-05T12:41:43.974Z,18.13
2018-09-05T12:44:12.691Z,17.13
2018-09-05T12:46:40.843Z,20.47
2018-09-05T12:49:09.192Z,16.93
2018-09-05T12:51:37.468Z,18.27
2018-09-05T12:54:06.240Z,15.97
2018-09-05T12:56:34.551Z,18.97
2018-09-05T12:59:02.792Z,17.17
2018-09-05T13:01:30.994Z,18.90
2018-09-05T13:03:59.316Z,17.20
2018-09-05T13:06:27.856Z,15.53
2018-09-05T13:08:56.034Z,14.97
2018-09-05T13:11:24.305Z,15.53
2018-09-05T13:13:52.469Z,16.03
2018-09-05T13:16:20.959Z,14.43
2018-09-05T13:18:49.171Z,13.87
2018-09-05T13:21:17.373Z,12.67
2018-09-05T13:23:45.781Z,15.93
2018-09-05T13:26:14.169Z,13.57
2018-09-05T13:28:42.817Z,12.17
2018-09-05T13:31:11.091Z,12.57
2018-09-05T13:33:39.303Z,11.47
2018-09-05T13:36:07.695Z,12.93
2018-09-05T13:38:35.878Z,12.33
2018-09-05T13:41:04.080Z,11.53
2018-09-05T13:43:32.341Z,11.90
2018-09-05T13:46:00.585Z,20.27
2018-09-05T13:48:28.814Z,11.20
2018-09-05T13:50:57.047Z,11.20
2018-09-05T13:53:25.239Z,11.43
2018-09-05T13:55:53.447Z,11.70
2018-09-05T13:58:21.627Z,11.40
2018-09-05T14:00:49.862Z,10.10
2018-09-05T14:03:18.226Z,10.07
2018-09-05T14:05:46.435Z,9.80
2018-09-05T14:08:14.683Z,11.27
2018-09-05T14:10:43.135Z,10.33
2018-09-05T14:13:11.324Z,10.00
2018-09-05T14:15:39.531Z,9.93
2018-09-05T14:18:07.760Z,10.50
2018-09-05T14:20:36.015Z,12.13
2018-09-05T14:23:04.216Z,10.30
2018-09-05T14:25:36.618Z,10.50
2018-09-05T14:28:05.410Z,10.60
2018-09-05T14:30:33.647Z,10.00
2018-09-05T14:33:01.902Z,10.27
2018-09-05T14:35:30.105Z,10.73
2018-09-05T14:37:58.343Z,10.47
2018-09-05T14:40:26.538Z,11.03
2018-09-05T14:42:54.774Z,12.33
2018-09-05T14:45:22.990Z,12.80
2018-09-05T14:47:51.217Z,14.13
2018-09-05T14:50:19.533Z,9.33
2018-09-05T14:52:47.971Z,10.70
2018-09-05T14:55:16.278Z,10.40
2018-09-05T14:57:44.766Z,11.90
2018-09-05T15:00:13.081Z,11.23
2018-09-05T15:02:41.377Z,10.10
2018-09-05T15:05:09.753Z,10.20
2018-09-05T15:07:37.991Z,10.77
2018-09-05T15:10:06.363Z,9.40
2018-09-05T15:12:34.583Z,11.30
2018-09-05T15:15:02.792Z,9.43
2018-09-05T15:17:31.069Z,9.97
2018-09-05T15:19:59.295Z,12.17
2018-09-05T15:22:27.515Z,10.67
2018-09-05T15:24:55.760Z,9.57
2018-09-05T15:27:24.031Z,9.80
2018-09-05T15:29:52.298Z,11.60
2018-09-05T15:32:20.628Z,10.87
2018-09-05T15:34:48.793Z,10.27
2018-09-05T15:37:17.081Z,13.90
2018-09-05T15:39:45.270Z,10.70
2018-09-05T15:42:13.467Z,11.03
2018-09-05T15:44:41.783Z,10.17
2018-09-05T15:47:10.106Z,10.80
2018-09-05T15:49:38.320Z,12.40
2018-09-05T15:52:06.622Z,9.80
2018-09-05T15:54:35.798Z,11.77
2018-09-05T15:57:04.004Z,9.87
2018-09-05T15:59:32.425Z,10.90
2018-09-05T16:02:01.259Z,11.30
2018-09-05T16:04:29.524Z,13.50
2018-09-05T16:06:57.796Z,12.40
2018-09-05T16:09:26.360Z,20.70
2018-09-05T16:11:54.844Z,21.53
2018-09-05T16:14:23.076Z,13.57
2018-09-05T16:16:51.405Z,13.60
2018-09-05T16:19:19.610Z,10.60
2018-09-05T16:21:47.853Z,13.20
2018-09-05T16:24:16.039Z,13.60
2018-09-05T16:26:44.223Z,12.97
2018-09-05T16:29:12.502Z,11.67
2018-09-05T16:31:40.774Z,10.90
2018-09-05T16:34:09.515Z,11.83
2018-09-05T16:36:37.721Z,9.63
2018-09-05T16:39:08.790Z,10.40
2018-09-05T16:41:37.420Z,10.20
2018-09-05T16:44:05.607Z,10.97
2018-09-05T16:46:33.818Z,11.50
2018-09-05T16:49:02.042Z,11.87
2018-09-05T16:51:30.387Z,12.77
2018-09-05T16:53:58.564Z,13.50
2018-09-05T16:56:26.851Z,14.33
2018-09-05T16:58:55.107Z,11.67
2018-09-05T17:01:23.372Z,14.13
2018-09-05T17:03:51.604Z,10.17
2018-09-05T17:06:19.806Z,11.13
2018-09-05T17:08:48.058Z,11.83
2018-09-05T17:11:16.366Z,10.40
2018-09-05T17:13:44.572Z,11.73
2018-09-05T17:16:12.820Z,12.90
2018-09-05T17:18:41.067Z,12.07
2018-09-05T17:21:09.331Z,11.23
2018-09-05T17:23:37.548Z,11.80
2018-09-05T17:26:06.166Z,10.87
2018-09-05T17:28:34.446Z,10.53
2018-09-05T17:31:02.627Z,11.70
2018-09-05T17:33:30.840Z,11.90
2018-09-05T17:35:59.031Z,11.40
2018-09-05T17:38:27.282Z,11.73
2018-09-05T17:40:55.472Z,12.00
2018-09-05T17:43:23.666Z,11.03
2018-09-05T17:45:51.894Z,12.73
2018-09-05T17:48:20.151Z,11.53
2018-09-05T17:50:49.044Z,12.27
2018-09-05T17:53:19.714Z,11.63
2018-09-05T17:55:48.195Z,11.60
2018-09-05T17:58:16.434Z,18.30
2018-09-05T18:00:44.726Z,17.43
2018-09-05T18:03:12.954Z,13.07
2018-09-05T18:05:41.130Z,13.37
2018-09-05T18:08:09.323Z,11.93
2018-09-05T18:10:37.566Z,13.20
2018-09-05T18:13:06.031Z,14.63
2018-09-05T18:15:34.289Z,13.23
2018-09-05T18:18:02.605Z,12.90
2018-09-05T18:20:30.806Z,13.87
2018-09-05T18:22:59.051Z,13.50
2018-09-05T18:25:27.344Z,13.43
2018-09-05T18:27:55.560Z,12.47
2018-09-05T18:30:23.907Z,12.10
2018-09-05T18:32:52.395Z,13.07
2018-09-05T18:35:20.581Z,12.33
2018-09-05T18:37:48.815Z,15.07
2018-09-05T18:40:16.991Z,13.13
2018-09-05T18:42:45.229Z,13.67
2018-09-05T18:45:13.451Z,15.10
2018-09-05T18:47:41.697Z,14.63
2018-09-05T18:50:10.095Z,14.47
2018-09-05T18:52:38.328Z,12.93
2018-09-05T18:55:07.436Z,13.03
2018-09-05T18:57:35.642Z,11.47
2018-09-05T19:00:03.878Z,11.07
2018-09-05T19:02:32.123Z,11.60
2018-09-05T19:05:00.343Z,13.30
2018-09-05T19:07:28.532Z,12.70
2018-09-05T19:09:56.749Z,12.23
2018-09-05T19:12:24.975Z,12.43
2018-09-05T19:14:53.244Z,10.60
2018-09-05T19:17:21.438Z,10.03
2018-09-05T19:19:49.655Z,11.17
2018-09-05T19:22:17.877Z,10.80
2018-09-05T19:24:46.076Z,14.47
2018-09-05T19:27:14.326Z,11.37
2018-09-05T19:29:42.555Z,12.47
2018-09-05T19:32:10.776Z,12.17
2018-09-05T19:34:39.077Z,10.80
2018-09-05T19:37:07.485Z,10.80
2018-09-05T19:39:35.696Z,11.13
2018-09-05T19:42:03.926Z,12.17
2018-09-05T19:44:32.156Z,12.63
2018-09-05T19:47:00.449Z,11.37
2018-09-05T19:49:28.700Z,14.00
2018-09-05T19:51:59.311Z,11.87
2018-09-05T19:54:27.533Z,11.97
2018-09-05T19:56:57.085Z,13.30
2018-09-05T19:59:26.172Z,12.00
2018-09-05T20:01:54.441Z,14.17
2018-09-05T20:04:22.880Z,12.63
2018-09-05T20:06:51.065Z,12.90
2018-09-05T20:09:19.458Z,12.63
2018-09-05T20:11:47.651Z,12.53
2018-09-05T20:14:15.863Z,14.13
2018-09-05T20:16:44.067Z,12.70
2018-09-05T20:19:12.354Z,12.87
2018-09-05T20:21:40.583Z,11.60
2018-09-05T20:24:08.988Z,11.93
2018-09-05T20:26:37.251Z,12.67
2018-09-05T20:29:05.967Z,14.30
2018-09-05T20:31:34.899Z,14.80
2018-09-05T20:34:03.156Z,13.33
2018-09-05T20:36:31.819Z,13.93
2018-09-05T20:39:00.012Z,12.70
2018-09-05T20:41:28.216Z,13.23
2018-09-05T20:43:56.516Z,12.10
2018-09-05T20:46:24.727Z,12.80
2018-09-05T20:48:52.988Z,15.17
2018-09-05T20:51:21.263Z,14.50
2018-09-05T20:53:49.466Z,12.80
2018-09-05T20:56:17.814Z,12.67
2018-09-05T20:58:46.236Z,12.97
2018-09-05T21:01:14.417Z,12.87
2018-09-05T21:03:42.660Z,13.10
2018-09-05T21:06:10.907Z,13.17
2018-09-05T21:08:39.123Z,15.27
2018-09-05T21:11:07.307Z,13.63
2018-09-05T21:13:35.707Z,14.17
2018-09-05T21:16:03.975Z,13.90
2018-09-05T21:18:33.222Z,12.93
2018-09-05T21:21:01.503Z,12.83
2018-09-05T21:23:31.555Z,13.77
2018-09-05T21:25:59.803Z,13.13
2018-09-05T21:28:28.145Z,12.90
2018-09-05T21:30:56.390Z,12.63
2018-09-05T21:33:25.120Z,12.57
2018-09-05T21:35:53.334Z,13.27
2018-09-05T21:38:21.587Z,13.30
2018-09-05T21:40:49.790Z,14.03
2018-09-05T21:43:18.046Z,14.90
2018-09-05T21:45:46.403Z,13.70
2018-09-05T21:48:14.706Z,16.23
2018-09-05T21:50:43.593Z,14.23
2018-09-05T21:53:11.831Z,18.13
2018-09-05T21:55:40.034Z,16.07
2018-09-05T21:58:08.274Z,17.43
2018-09-05T22:00:37.445Z,19.37
2018-09-05T22:03:05.834Z,19.57
2018-09-05T22:05:34.674Z,23.90
2018-09-05T22:08:02.900Z,28.93
2018-09-05T22:10:31.126Z,31.30
2018-09-05T22:12:59.355Z,29.27
2018-09-05T22:15:31.990Z,33.33
2018-09-05T22:18:00.200Z,25.80
2018-09-05T22:20:28.423Z,32.50
2018-09-05T22:22:56.647Z,26.03
2018-09-05T22:25:24.899Z,30.23
2018-09-05T22:27:53.086Z,33.10
2018-09-05T22:30:21.381Z,34.53
2018-09-05T22:32:49.575Z,32.27
2018-09-05T22:35:17.927Z,32.43
2018-09-05T22:37:46.156Z,31.37
2018-09-05T22:40:14.378Z,29.27
2018-09-05T22:42:52.559Z,33.20
2018-09-05T22:45:32.201Z,31.73
2018-09-05T22:48:26.688Z,33.80
2018-09-05T22:51:13.179Z,34.73
2018-09-05T22:54:11.731Z,30.73
2018-09-05T22:56:57.665Z,32.57
2018-09-05T22:59:36.977Z,33.03
2018-09-05T23:03:18.622Z,29.13
2018-09-05T23:05:57.836Z,38.73
2018-09-05T23:08:41.816Z,32.17
2018-09-05T23:11:21.690Z,32.77
2018-09-05T23:14:04.155Z,31.80
2018-09-05T23:16:43.658Z,36.27
2018-09-05T23:19:33.648Z,31.23
2018-09-05T23:22:01.887Z,33.13
2018-09-05T23:24:30.964Z,29.33
2018-09-05T23:26:59.175Z,28.23
2018-09-05T23:29:27.431Z,27.13
2018-09-05T23:31:55.686Z,31.10
2018-09-05T23:34:23.956Z,28.57
2018-09-05T23:36:52.160Z,27.33
2018-09-05T23:39:20.351Z,27.07
2018-09-05T23:41:48.567Z,27.27
2018-09-05T23:44:16.780Z,24.90
2018-09-05T23:46:45.095Z,24.70
2018-09-05T23:49:13.305Z,25.13
2018-09-05T23:51:41.511Z,32.30
2018-09-05T23:54:09.783Z,29.30
2018-09-05T23:56:38.125Z,25.17
2018-09-05T23:59:07.528Z,30.40
